sensor_id;sensor_type;location;lat;lon;timestamp;pressure;altitude;pressure_sealevel;temperature;humidity
72921;BME280;61064;51.654;5.476;2022-12-18T00:01:31;102959.56;;;-4.08;86.43
72921;BME280;61064;51.654;5.476;2022-12-18T00:04:02;102945.66;;;-4.08;86.33
72921;BME280;61064;51.654;5.476;2022-12-18T00:06:31;102938.47;;;-4.11;86.41
72921;BME280;61064;51.654;5.476;2022-12-18T00:09:01;102775.72;;;-4.98;85.93
72921;BME280;61064;51.654;5.476;2022-12-18T00:11:29;102837.69;;;-4.75;85.86
72921;BME280;61064;51.654;5.476;2022-12-18T00:13:59;102827.91;;;-4.78;86.03
72921;BME280;61064;51.654;5.476;2022-12-18T00:16:26;102776.94;;;-5.03;86.12
72921;BME280;61064;51.654;5.476;2022-12-18T00:18:54;102939.53;;;-4.18;85.99
72921;BME280;61064;51.654;5.476;2022-12-18T00:21:21;102868.66;;;-4.51;86.00
72921;BME280;61064;51.654;5.476;2022-12-18T00:23:47;102839.22;;;-4.69;85.99
72921;BME280;61064;51.654;5.476;2022-12-18T00:26:23;102782.13;;;-5.03;85.81
72921;BME280;61064;51.654;5.476;2022-12-18T00:28:49;102865.00;;;-4.62;86.08
72921;BME280;61064;51.654;5.476;2022-12-18T00:31:22;102877.09;;;-4.53;86.20
72921;BME280;61064;51.654;5.476;2022-12-18T00:33:47;102790.69;;;-5.13;85.93
72921;BME280;61064;51.654;5.476;2022-12-18T00:36:15;102884.44;;;-4.58;85.94
72921;BME280;61064;51.654;5.476;2022-12-18T00:38:43;102933.16;;;-4.30;85.86
72921;BME280;61064;51.654;5.476;2022-12-18T00:41:10;102835.56;;;-4.88;85.79
72921;BME280;61064;51.654;5.476;2022-12-18T00:43:37;102894.06;;;-4.57;86.09
72921;BME280;61064;51.654;5.476;2022-12-18T00:46:03;102898.47;;;-4.56;85.87
72921;BME280;61064;51.654;5.476;2022-12-18T00:48:29;102905.34;;;-4.56;85.61
72921;BME280;61064;51.654;5.476;2022-12-18T00:50:57;102916.06;;;-4.53;85.83
72921;BME280;61064;51.654;5.476;2022-12-18T00:53:23;102911.00;;;-4.61;85.79
72921;BME280;61064;51.654;5.476;2022-12-18T00:55:48;102925.34;;;-4.55;86.05
72921;BME280;61064;51.654;5.476;2022-12-18T00:58:16;102916.66;;;-4.56;86.21
72921;BME280;61064;51.654;5.476;2022-12-18T01:00:42;102894.69;;;-4.68;85.80
72921;BME280;61064;51.654;5.476;2022-12-18T01:03:12;102910.09;;;-4.61;85.91
72921;BME280;61064;51.654;5.476;2022-12-18T01:05:40;102918.78;;;-4.61;86.00
72921;BME280;61064;51.654;5.476;2022-12-18T01:08:06;102924.63;;;-4.63;85.79
72921;BME280;61064;51.654;5.476;2022-12-18T01:10:31;102904.75;;;-4.80;85.96
72921;BME280;61064;51.654;5.476;2022-12-18T01:12:59;102934.34;;;-4.78;86.13
72921;BME280;61064;51.654;5.476;2022-12-18T01:15:25;102929.47;;;-4.83;85.86
72921;BME280;61064;51.654;5.476;2022-12-18T01:17:52;102924.91;;;-4.86;85.71
72921;BME280;61064;51.654;5.476;2022-12-18T01:20:17;102949.63;;;-4.72;85.87
72921;BME280;61064;51.654;5.476;2022-12-18T01:22:43;102954.25;;;-4.70;85.95
72921;BME280;61064;51.654;5.476;2022-12-18T01:25:08;102929.47;;;-4.83;85.89
72921;BME280;61064;51.654;5.476;2022-12-18T01:27:37;102939.41;;;-4.71;85.94
72921;BME280;61064;51.654;5.476;2022-12-18T01:30:03;102859.19;;;-5.28;85.66
72921;BME280;61064;51.654;5.476;2022-12-18T01:32:30;102931.94;;;-4.76;85.83
72921;BME280;61064;51.654;5.476;2022-12-18T01:34:55;102938.97;;;-4.75;85.85
72921;BME280;61064;51.654;5.476;2022-12-18T01:37:23;102936.50;;;-4.82;85.88
72921;BME280;61064;51.654;5.476;2022-12-18T01:39:49;102923.22;;;-4.85;85.61
72921;BME280;61064;51.654;5.476;2022-12-18T01:42:16;102850.06;;;-5.24;85.77
72921;BME280;61064;51.654;5.476;2022-12-18T01:50:00;102828.34;;;-5.42;85.61
72921;BME280;61064;51.654;5.476;2022-12-18T01:52:28;102933.28;;;-4.88;85.51
72921;BME280;61064;51.654;5.476;2022-12-18T01:54:55;102909.59;;;-5.00;85.81
72921;BME280;61064;51.654;5.476;2022-12-18T01:57:21;102920.16;;;-4.98;85.74
72921;BME280;61064;51.654;5.476;2022-12-18T01:59:52;102911.44;;;-5.08;85.79
72921;BME280;61064;51.654;5.476;2022-12-18T02:02:20;102847.56;;;-5.40;85.72
72921;BME280;61064;51.654;5.476;2022-12-18T02:04:49;102931.16;;;-4.92;85.66
72921;BME280;61064;51.654;5.476;2022-12-18T02:07:26;102926.13;;;-4.91;85.70
72921;BME280;61064;51.654;5.476;2022-12-18T02:10:06;102927.03;;;-4.90;85.59
72921;BME280;61064;51.654;5.476;2022-12-18T02:12:46;102905.78;;;-4.95;85.87
72921;BME280;61064;51.654;5.476;2022-12-18T02:17:54;102921.34;;;-4.95;85.42
72921;BME280;61064;51.654;5.476;2022-12-18T02:20:31;102922.44;;;-4.93;85.51
72921;BME280;61064;51.654;5.476;2022-12-18T02:26:21;102923.81;;;-4.96;85.53
72921;BME280;61064;51.654;5.476;2022-12-18T02:29:00;102906.38;;;-5.15;85.60
72921;BME280;61064;51.654;5.476;2022-12-18T02:31:35;102904.53;;;-5.16;85.37
72921;BME280;61064;51.654;5.476;2022-12-18T02:34:04;102902.09;;;-5.14;85.49
72921;BME280;61064;51.654;5.476;2022-12-18T02:36:34;102890.03;;;-5.22;85.42
72921;BME280;61064;51.654;5.476;2022-12-18T02:39:02;102909.44;;;-5.19;85.60
72921;BME280;61064;51.654;5.476;2022-12-18T02:41:29;102895.97;;;-5.23;85.69
72921;BME280;61064;51.654;5.476;2022-12-18T02:43:59;102887.13;;;-5.25;85.64
72921;BME280;61064;51.654;5.476;2022-12-18T02:46:31;102911.28;;;-5.09;85.68
72921;BME280;61064;51.654;5.476;2022-12-18T02:49:05;102827.69;;;-5.57;85.36
72921;BME280;61064;51.654;5.476;2022-12-18T02:57:18;102888.47;;;-5.29;85.66
72921;BME280;61064;51.654;5.476;2022-12-18T03:00:08;102878.56;;;-5.33;85.62
72921;BME280;61064;51.654;5.476;2022-12-18T03:02:37;102908.34;;;-5.21;85.41
72921;BME280;61064;51.654;5.476;2022-12-18T03:05:12;102893.66;;;-5.29;85.39
72921;BME280;61064;51.654;5.476;2022-12-18T03:08:03;102876.09;;;-5.40;85.48
72921;BME280;61064;51.654;5.476;2022-12-18T03:10:40;102827.34;;;-5.77;85.67
72921;BME280;61064;51.654;5.476;2022-12-18T03:13:12;102823.25;;;-5.75;85.31
72921;BME280;61064;51.654;5.476;2022-12-18T03:15:44;102885.59;;;-5.32;85.45
72921;BME280;61064;51.654;5.476;2022-12-18T03:18:23;102839.28;;;-5.62;85.47
72921;BME280;61064;51.654;5.476;2022-12-18T03:20:55;102891.34;;;-5.34;85.44
72921;BME280;61064;51.654;5.476;2022-12-18T03:23:25;102830.41;;;-5.72;85.54
72921;BME280;61064;51.654;5.476;2022-12-18T03:25:55;102899.94;;;-5.35;85.37
72921;BME280;61064;51.654;5.476;2022-12-18T03:28:22;102867.50;;;-5.56;85.56
72921;BME280;61064;51.654;5.476;2022-12-18T03:30:54;102866.28;;;-5.60;85.50
72921;BME280;61064;51.654;5.476;2022-12-18T03:33:25;102861.69;;;-5.62;85.44
72921;BME280;61064;51.654;5.476;2022-12-18T03:35:52;102894.97;;;-5.50;85.48
72921;BME280;61064;51.654;5.476;2022-12-18T03:38:21;102720.75;;;-6.47;85.59
72921;BME280;61064;51.654;5.476;2022-12-18T03:40:51;102881.56;;;-5.54;85.67
72921;BME280;61064;51.654;5.476;2022-12-18T03:44:09;102877.88;;;-5.56;85.54
72921;BME280;61064;51.654;5.476;2022-12-18T03:47:11;102875.91;;;-5.59;85.39
72921;BME280;61064;51.654;5.476;2022-12-18T03:52:40;102867.59;;;-5.72;85.70
72921;BME280;61064;51.654;5.476;2022-12-18T03:55:08;102849.75;;;-5.77;85.50
72921;BME280;61064;51.654;5.476;2022-12-18T03:57:35;102860.75;;;-5.63;85.45
72921;BME280;61064;51.654;5.476;2022-12-18T04:00:14;102861.69;;;-5.62;85.53
72921;BME280;61064;51.654;5.476;2022-12-18T04:02:48;102863.22;;;-5.64;85.48
72921;BME280;61064;51.654;5.476;2022-12-18T04:05:18;102838.78;;;-5.75;85.29
72921;BME280;61064;51.654;5.476;2022-12-18T04:07:47;102814.81;;;-5.90;85.47
72921;BME280;61064;51.654;5.476;2022-12-18T04:10:14;102826.13;;;-5.80;85.51
72921;BME280;61064;51.654;5.476;2022-12-18T04:12:41;102754.34;;;-6.23;85.36
72921;BME280;61064;51.654;5.476;2022-12-18T04:15:07;102823.19;;;-5.83;85.70
72921;BME280;61064;51.654;5.476;2022-12-18T04:17:33;102725.84;;;-6.32;85.20
72921;BME280;61064;51.654;5.476;2022-12-18T04:20:01;102637.03;;;-6.81;85.20
72921;BME280;61064;51.654;5.476;2022-12-18T04:22:27;102800.19;;;-5.89;85.39
72921;BME280;61064;51.654;5.476;2022-12-18T04:24:52;102746.28;;;-6.26;85.26
72921;BME280;61064;51.654;5.476;2022-12-18T04:27:18;102695.00;;;-6.46;85.25
72921;BME280;61064;51.654;5.476;2022-12-18T04:29:52;102726.69;;;-6.40;85.47
72921;BME280;61064;51.654;5.476;2022-12-18T04:32:18;102771.31;;;-6.09;85.18
72921;BME280;61064;51.654;5.476;2022-12-18T04:34:43;102674.72;;;-6.58;85.42
72921;BME280;61064;51.654;5.476;2022-12-18T04:37:09;102829.53;;;-5.64;85.42
72921;BME280;61064;51.654;5.476;2022-12-18T04:39:34;102841.56;;;-5.65;85.26
72921;BME280;61064;51.654;5.476;2022-12-18T04:42:03;102848.09;;;-5.68;85.27
72921;BME280;61064;51.654;5.476;2022-12-18T04:44:28;102788.88;;;-5.98;85.43
72921;BME280;61064;51.654;5.476;2022-12-18T04:46:54;102718.53;;;-6.36;85.31
72921;BME280;61064;51.654;5.476;2022-12-18T04:49:21;102841.53;;;-5.73;85.46
72921;BME280;61064;51.654;5.476;2022-12-18T04:51:46;102798.50;;;-5.97;85.13
72921;BME280;61064;51.654;5.476;2022-12-18T04:54:11;102806.75;;;-5.93;85.06
72921;BME280;61064;51.654;5.476;2022-12-18T04:56:37;102767.44;;;-6.30;85.17
72921;BME280;61064;51.654;5.476;2022-12-18T04:59:06;102700.25;;;-6.61;85.34
72921;BME280;61064;51.654;5.476;2022-12-18T05:01:34;102832.03;;;-5.90;85.06
72921;BME280;61064;51.654;5.476;2022-12-18T05:04:00;102727.59;;;-6.48;85.09
72921;BME280;61064;51.654;5.476;2022-12-18T05:06:26;102803.34;;;-6.09;85.19
72921;BME280;61064;51.654;5.476;2022-12-18T05:08:52;102871.69;;;-5.74;85.23
72921;BME280;61064;51.654;5.476;2022-12-18T05:11:17;102837.66;;;-5.94;85.23
72921;BME280;61064;51.654;5.476;2022-12-18T05:13:44;102855.56;;;-5.80;85.40
72921;BME280;61064;51.654;5.476;2022-12-18T05:16:13;102878.03;;;-5.63;85.28
72921;BME280;61064;51.654;5.476;2022-12-18T05:18:41;102832.03;;;-5.99;85.28
72921;BME280;61064;51.654;5.476;2022-12-18T05:21:07;102776.25;;;-6.37;85.26
72921;BME280;61064;51.654;5.476;2022-12-18T05:23:35;102878.72;;;-5.73;85.10
72921;BME280;61064;51.654;5.476;2022-12-18T05:26:05;102830.00;;;-6.01;85.13
72921;BME280;61064;51.654;5.476;2022-12-18T05:28:33;102858.28;;;-5.87;85.25
72921;BME280;61064;51.654;5.476;2022-12-18T05:31:01;102874.63;;;-5.71;85.04
72921;BME280;61064;51.654;5.476;2022-12-18T05:33:30;102877.69;;;-5.75;85.13
72921;BME280;61064;51.654;5.476;2022-12-18T05:35:58;102842.28;;;-5.92;85.09
72921;BME280;61064;51.654;5.476;2022-12-18T05:38:33;102698.50;;;-6.78;84.95
72921;BME280;61064;51.654;5.476;2022-12-18T05:40:59;102872.91;;;-5.88;85.15
72921;BME280;61064;51.654;5.476;2022-12-18T05:43:26;102776.81;;;-6.39;85.10
72921;BME280;61064;51.654;5.476;2022-12-18T05:45:55;102689.97;;;-6.86;84.89
72921;BME280;61064;51.654;5.476;2022-12-18T05:48:22;102709.03;;;-6.77;84.86
72921;BME280;61064;51.654;5.476;2022-12-18T05:50:48;102769.53;;;-6.35;85.25
72921;BME280;61064;51.654;5.476;2022-12-18T05:53:17;102761.63;;;-6.36;85.00
72921;BME280;61064;51.654;5.476;2022-12-18T05:55:47;102858.28;;;-5.78;85.14
72921;BME280;61064;51.654;5.476;2022-12-18T05:58:16;102792.16;;;-6.16;85.41
72921;BME280;61064;51.654;5.476;2022-12-18T06:00:45;102787.91;;;-6.16;84.95
72921;BME280;61064;51.654;5.476;2022-12-18T06:03:12;102706.34;;;-6.69;84.96
72921;BME280;61064;51.654;5.476;2022-12-18T06:05:40;102789.84;;;-6.22;85.30
72921;BME280;61064;51.654;5.476;2022-12-18T06:08:09;102687.50;;;-6.84;85.22
72921;BME280;61064;51.654;5.476;2022-12-18T06:10:36;102727.53;;;-6.56;85.09
72921;BME280;61064;51.654;5.476;2022-12-18T06:13:01;102747.97;;;-6.51;85.01
72921;BME280;61064;51.654;5.476;2022-12-18T06:18:18;102760.25;;;-6.33;84.82
72921;BME280;61064;51.654;5.476;2022-12-18T06:20:54;102744.34;;;-6.53;85.19
72921;BME280;61064;51.654;5.476;2022-12-18T06:23:20;102667.38;;;-6.95;84.93
72921;BME280;61064;51.654;5.476;2022-12-18T06:25:55;102673.34;;;-6.88;84.96
72921;BME280;61064;51.654;5.476;2022-12-18T06:28:21;102784.19;;;-6.26;85.17
72921;BME280;61064;51.654;5.476;2022-12-18T06:30:47;102726.59;;;-6.65;84.89
72921;BME280;61064;51.654;5.476;2022-12-18T06:33:16;102701.72;;;-6.81;85.04
72921;BME280;61064;51.654;5.476;2022-12-18T06:35:42;102669.56;;;-6.83;84.90
72921;BME280;61064;51.654;5.476;2022-12-18T06:38:10;102789.38;;;-6.26;84.87
72921;BME280;61064;51.654;5.476;2022-12-18T06:40:37;102761.94;;;-6.33;85.09
72921;BME280;61064;51.654;5.476;2022-12-18T06:43:04;102674.75;;;-6.83;84.96
72921;BME280;61064;51.654;5.476;2022-12-18T06:45:30;102772.47;;;-6.23;84.77
72921;BME280;61064;51.654;5.476;2022-12-18T06:47:57;102756.81;;;-6.24;84.88
72921;BME280;61064;51.654;5.476;2022-12-18T06:50:23;102820.75;;;-5.91;85.06
72921;BME280;61064;51.654;5.476;2022-12-18T06:52:48;102731.47;;;-6.36;85.01
72921;BME280;61064;51.654;5.476;2022-12-18T06:55:13;102721.06;;;-6.44;84.94
72921;BME280;61064;51.654;5.476;2022-12-18T06:57:39;102767.47;;;-6.21;84.97
72921;BME280;61064;51.654;5.476;2022-12-18T07:00:06;102753.06;;;-6.35;84.88
72921;BME280;61064;51.654;5.476;2022-12-18T07:02:32;102818.31;;;-5.98;84.79
72921;BME280;61064;51.654;5.476;2022-12-18T07:04:57;102805.03;;;-6.01;85.09
72921;BME280;61064;51.654;5.476;2022-12-18T07:07:23;102767.63;;;-6.20;84.80
72921;BME280;61064;51.654;5.476;2022-12-18T07:09:51;102774.50;;;-6.12;84.96
72921;BME280;61064;51.654;5.476;2022-12-18T07:12:17;102780.00;;;-6.09;84.88
72921;BME280;61064;51.654;5.476;2022-12-18T07:14:43;102807.22;;;-5.88;84.95
72921;BME280;61064;51.654;5.476;2022-12-18T07:17:08;102797.44;;;-5.91;84.82
72921;BME280;61064;51.654;5.476;2022-12-18T07:19:34;102780.19;;;-5.99;85.03
72921;BME280;61064;51.654;5.476;2022-12-18T07:22:02;102777.91;;;-5.96;84.91
72921;BME280;61064;51.654;5.476;2022-12-18T07:24:27;102783.88;;;-5.97;84.86
72921;BME280;61064;51.654;5.476;2022-12-18T07:26:53;102758.09;;;-6.04;84.96
72921;BME280;61064;51.654;5.476;2022-12-18T07:29:19;102733.78;;;-6.21;84.73
72921;BME280;61064;51.654;5.476;2022-12-18T07:31:44;102602.31;;;-6.83;84.65
72921;BME280;61064;51.654;5.476;2022-12-18T07:34:11;102763.00;;;-5.90;84.56
72921;BME280;61064;51.654;5.476;2022-12-18T07:36:37;102690.81;;;-6.28;84.97
72921;BME280;61064;51.654;5.476;2022-12-18T07:39:03;102653.09;;;-6.50;84.78
72921;BME280;61064;51.654;5.476;2022-12-18T07:41:29;102740.25;;;-6.01;84.83
72921;BME280;61064;51.654;5.476;2022-12-18T07:43:54;102732.00;;;-6.05;84.68
72921;BME280;61064;51.654;5.476;2022-12-18T07:46:20;102683.78;;;-6.29;84.95
72921;BME280;61064;51.654;5.476;2022-12-18T07:48:45;102751.72;;;-5.81;85.04
72921;BME280;61064;51.654;5.476;2022-12-18T07:51:11;102748.66;;;-5.86;84.93
72921;BME280;61064;51.654;5.476;2022-12-18T07:53:37;102645.56;;;-6.32;85.04
72921;BME280;61064;51.654;5.476;2022-12-18T07:56:06;102650.75;;;-6.23;84.87
72921;BME280;61064;51.654;5.476;2022-12-18T07:58:33;102648.94;;;-6.15;85.02
72921;BME280;61064;51.654;5.476;2022-12-18T08:01:10;102601.50;;;-6.40;84.98
72921;BME280;61064;51.654;5.476;2022-12-18T08:03:36;102725.38;;;-5.69;84.95
72921;BME280;61064;51.654;5.476;2022-12-18T08:06:09;102556.69;;;-6.65;84.90
72921;BME280;61064;51.654;5.476;2022-12-18T08:08:35;102636.44;;;-6.11;84.81
72921;BME280;61064;51.654;5.476;2022-12-18T08:11:04;102694.22;;;-5.77;85.06
72921;BME280;61064;51.654;5.476;2022-12-18T08:13:29;102678.97;;;-5.83;84.84
72921;BME280;61064;51.654;5.476;2022-12-18T08:15:59;102598.78;;;-6.33;84.97
72921;BME280;61064;51.654;5.476;2022-12-18T08:18:25;102688.00;;;-5.71;85.20
72921;BME280;61064;51.654;5.476;2022-12-18T08:20:54;102672.44;;;-5.71;84.93
72921;BME280;61064;51.654;5.476;2022-12-18T08:23:19;102557.06;;;-6.36;84.97
72921;BME280;61064;51.654;5.476;2022-12-18T08:25:45;102712.69;;;-5.57;84.96
72921;BME280;61064;51.654;5.476;2022-12-18T08:28:10;102739.38;;;-5.24;85.03
72921;BME280;61064;51.654;5.476;2022-12-18T08:30:36;102691.97;;;-5.49;85.14
72921;BME280;61064;51.654;5.476;2022-12-18T08:33:02;102719.88;;;-5.20;84.82
72921;BME280;61064;51.654;5.476;2022-12-18T08:35:27;102706.75;;;-5.22;84.80
72921;BME280;61064;51.654;5.476;2022-12-18T08:37:56;102669.53;;;-5.39;84.59
72921;BME280;61064;51.654;5.476;2022-12-18T08:40:21;102729.63;;;-4.92;84.88
72921;BME280;61064;51.654;5.476;2022-12-18T08:42:47;102702.59;;;-5.03;84.79
72921;BME280;61064;51.654;5.476;2022-12-18T08:45:34;102698.94;;;-5.05;84.59
72921;BME280;61064;51.654;5.476;2022-12-18T08:47:59;102697.09;;;-4.97;84.84
72921;BME280;61064;51.654;5.476;2022-12-18T08:50:24;102688.38;;;-4.89;84.98
72921;BME280;61064;51.654;5.476;2022-12-18T08:52:50;102676.94;;;-4.91;84.76
72921;BME280;61064;51.654;5.476;2022-12-18T08:55:15;102571.00;;;-5.48;84.74
72921;BME280;61064;51.654;5.476;2022-12-18T08:57:43;102653.91;;;-4.96;84.88
72921;BME280;61064;51.654;5.476;2022-12-18T09:00:13;102567.78;;;-5.37;84.86
72921;BME280;61064;51.654;5.476;2022-12-18T09:02:41;102573.25;;;-5.25;84.78
72921;BME280;61064;51.654;5.476;2022-12-18T09:05:06;102696.78;;;-4.47;84.75
72921;BME280;61064;51.654;5.476;2022-12-18T09:07:31;102722.53;;;-4.31;84.72
72921;BME280;61064;51.654;5.476;2022-12-18T09:09:59;102549.78;;;-5.35;84.79
72921;BME280;61064;51.654;5.476;2022-12-18T09:12:25;102557.34;;;-5.20;84.78
72921;BME280;61064;51.654;5.476;2022-12-18T09:14:50;102592.22;;;-4.99;84.67
72921;BME280;61064;51.654;5.476;2022-12-18T09:17:16;102652.06;;;-4.53;84.53
72921;BME280;61064;51.654;5.476;2022-12-18T09:19:41;102570.84;;;-4.96;84.49
72921;BME280;61064;51.654;5.476;2022-12-18T09:22:06;102730.94;;;-3.98;84.93
72921;BME280;61064;51.654;5.476;2022-12-18T09:24:32;102734.03;;;-4.02;84.95
72921;BME280;61064;51.654;5.476;2022-12-18T09:26:57;102727.84;;;-3.94;84.67
72921;BME280;61064;51.654;5.476;2022-12-18T09:29:23;102718.22;;;-3.95;84.72
72921;BME280;61064;51.654;5.476;2022-12-18T09:31:51;102744.28;;;-3.76;84.63
72921;BME280;61064;51.654;5.476;2022-12-18T09:34:16;102719.69;;;-3.80;84.69
72921;BME280;61064;51.654;5.476;2022-12-18T09:36:42;102648.59;;;-4.07;84.79
72921;BME280;61064;51.654;5.476;2022-12-18T09:39:07;102675.38;;;-3.90;84.60
72921;BME280;61064;51.654;5.476;2022-12-18T09:41:40;102708.00;;;-3.56;84.72
72921;BME280;61064;51.654;5.476;2022-12-18T09:44:32;102704.13;;;-3.51;84.60
72921;BME280;61064;51.654;5.476;2022-12-18T09:47:13;102700.31;;;-3.46;84.70
72921;BME280;61064;51.654;5.476;2022-12-18T09:49:43;102621.91;;;-3.78;84.46
72921;BME280;61064;51.654;5.476;2022-12-18T09:52:17;102689.81;;;-3.37;84.64
72921;BME280;61064;51.654;5.476;2022-12-18T09:54:50;102676.94;;;-3.36;84.64
72921;BME280;61064;51.654;5.476;2022-12-18T09:57:20;102677.16;;;-3.24;84.64
72921;BME280;61064;51.654;5.476;2022-12-18T09:59:53;102662.16;;;-3.26;84.78
72921;BME280;61064;51.654;5.476;2022-12-18T10:02:22;102663.34;;;-3.23;84.60
72921;BME280;61064;51.654;5.476;2022-12-18T10:05:11;102682.81;;;-3.09;84.59
72921;BME280;61064;51.654;5.476;2022-12-18T10:07:42;102681.53;;;-3.04;84.48
72921;BME280;61064;51.654;5.476;2022-12-18T10:13:23;102677.56;;;-2.90;84.34
72921;BME280;61064;51.654;5.476;2022-12-18T10:16:03;102686.72;;;-2.85;84.48
72921;BME280;61064;51.654;5.476;2022-12-18T10:21:30;102639.00;;;-2.95;84.36
72921;BME280;61064;51.654;5.476;2022-12-18T10:26:44;102632.66;;;-2.88;84.19
72921;BME280;61064;51.654;5.476;2022-12-18T10:29:14;102645.22;;;-2.74;84.06
72921;BME280;61064;51.654;5.476;2022-12-18T10:31:40;102664.13;;;-2.56;84.30
72921;BME280;61064;51.654;5.476;2022-12-18T10:34:15;102666.72;;;-2.56;84.25
72921;BME280;61064;51.654;5.476;2022-12-18T10:36:41;102637.28;;;-2.55;84.21
72921;BME280;61064;51.654;5.476;2022-12-18T10:39:18;102596.75;;;-2.72;84.26
72921;BME280;61064;51.654;5.476;2022-12-18T10:41:44;102619.81;;;-2.56;84.24
72921;BME280;61064;51.654;5.476;2022-12-18T10:44:18;102625.88;;;-2.37;84.29
72921;BME280;61064;51.654;5.476;2022-12-18T10:46:49;102557.19;;;-2.68;84.21
72921;BME280;61064;51.654;5.476;2022-12-18T10:49:30;102619.09;;;-2.25;84.13
72921;BME280;61064;51.654;5.476;2022-12-18T10:52:15;102627.31;;;-2.20;83.89
72921;BME280;61064;51.654;5.476;2022-12-18T10:54:59;102609.59;;;-2.24;84.03
72921;BME280;61064;51.654;5.476;2022-12-18T10:57:39;102544.16;;;-2.47;83.81
72921;BME280;61064;51.654;5.476;2022-12-18T11:00:27;102548.59;;;-2.46;83.89
72921;BME280;61064;51.654;5.476;2022-12-18T11:02:53;102567.75;;;-2.16;83.99
72921;BME280;61064;51.654;5.476;2022-12-18T11:07:50;102563.44;;;-2.15;83.86
72921;BME280;61064;51.654;5.476;2022-12-18T11:10:20;102582.19;;;-1.99;83.79
72921;BME280;61064;51.654;5.476;2022-12-18T11:12:46;102575.06;;;-2.01;83.79
72921;BME280;61064;51.654;5.476;2022-12-18T11:15:19;102606.16;;;-1.83;83.92
72921;BME280;61064;51.654;5.476;2022-12-18T11:17:48;102542.59;;;-2.15;83.46
72921;BME280;61064;51.654;5.476;2022-12-18T11:20:32;102575.94;;;-1.91;83.71
72921;BME280;61064;51.654;5.476;2022-12-18T11:23:11;102514.97;;;-2.13;83.72
72921;BME280;61064;51.654;5.476;2022-12-18T11:25:38;102568.22;;;-1.79;83.52
72921;BME280;61064;51.654;5.476;2022-12-18T11:28:25;102510.25;;;-2.07;83.29
72921;BME280;61064;51.654;5.476;2022-12-18T11:33:48;102546.41;;;-1.70;83.49
72921;BME280;61064;51.654;5.476;2022-12-18T11:36:16;102561.25;;;-1.58;83.58
72921;BME280;61064;51.654;5.476;2022-12-18T11:38:44;102515.00;;;-1.81;83.61
72921;BME280;61064;51.654;5.476;2022-12-18T11:41:27;102574.00;;;-1.41;83.44
72921;BME280;61064;51.654;5.476;2022-12-18T11:44:19;102552.97;;;-1.43;83.50
72921;BME280;61064;51.654;5.476;2022-12-18T11:46:58;102547.88;;;-1.41;82.97
72921;BME280;61064;51.654;5.476;2022-12-18T11:49:35;102569.38;;;-1.34;83.34
72921;BME280;61064;51.654;5.476;2022-12-18T11:52:13;102565.56;;;-1.27;83.18
72921;BME280;61064;51.654;5.476;2022-12-18T11:54:40;102556.72;;;-1.29;82.99
72921;BME280;61064;51.654;5.476;2022-12-18T12:22:49;102516.72;;;-0.96;82.65
72921;BME280;61064;51.654;5.476;2022-12-18T12:25:33;102512.50;;;-0.94;82.97
72921;BME280;61064;51.654;5.476;2022-12-18T12:34:04;102501.75;;;-0.87;82.86
72921;BME280;61064;51.654;5.476;2022-12-18T12:36:42;102502.81;;;-0.85;82.55
72921;BME280;61064;51.654;5.476;2022-12-18T12:39:17;102390.34;;;-1.42;82.35
72921;BME280;61064;51.654;5.476;2022-12-18T12:41:48;102432.03;;;-1.10;82.41
72921;BME280;61064;51.654;5.476;2022-12-18T12:44:54;102479.78;;;-0.79;82.56
72921;BME280;61064;51.654;5.476;2022-12-18T12:47:25;102388.81;;;-1.28;82.23
72921;BME280;61064;51.654;5.476;2022-12-18T12:49:55;102292.56;;;-1.69;82.22
72921;BME280;61064;51.654;5.476;2022-12-18T12:52:37;102409.81;;;-1.05;82.16
72921;BME280;61064;51.654;5.476;2022-12-18T12:55:20;102324.16;;;-1.54;81.92
72921;BME280;61064;51.654;5.476;2022-12-18T12:58:04;102412.31;;;-0.95;82.10
72921;BME280;61064;51.654;5.476;2022-12-18T13:01:01;102446.38;;;-0.71;81.65
72921;BME280;61064;51.654;5.476;2022-12-18T13:06:16;102380.72;;;-1.09;81.79
72921;BME280;61064;51.654;5.476;2022-12-18T13:09:00;102307.41;;;-1.46;81.79
72921;BME280;61064;51.654;5.476;2022-12-18T13:11:38;102306.28;;;-1.38;81.93
72921;BME280;61064;51.654;5.476;2022-12-18T13:14:35;102369.28;;;-1.00;82.00
72921;BME280;61064;51.654;5.476;2022-12-18T13:20:02;102435.38;;;-0.56;81.74
72921;BME280;61064;51.654;5.476;2022-12-18T13:22:36;102411.88;;;-0.67;81.85
72921;BME280;61064;51.654;5.476;2022-12-18T13:28:03;102423.59;;;-0.51;81.60
72921;BME280;61064;51.654;5.476;2022-12-18T13:35:51;102426.56;;;-0.46;81.86
72921;BME280;61064;51.654;5.476;2022-12-18T13:38:33;102363.59;;;-0.94;81.74
72921;BME280;61064;51.654;5.476;2022-12-18T13:43:49;102376.38;;;-0.75;81.61
72921;BME280;61064;51.654;5.476;2022-12-18T13:46:46;102417.09;;;-0.44;81.55
72921;BME280;61064;51.654;5.476;2022-12-18T13:51:41;102274.19;;;-1.25;81.19
72921;BME280;61064;51.654;5.476;2022-12-18T13:54:30;102399.97;;;-0.40;81.00
72921;BME280;61064;51.654;5.476;2022-12-18T13:56:58;102288.88;;;-1.04;81.07
72921;BME280;61064;51.654;5.476;2022-12-18T13:59:42;102323.91;;;-0.78;80.94
72921;BME280;61064;51.654;5.476;2022-12-18T14:02:20;102341.06;;;-0.70;81.26
72921;BME280;61064;51.654;5.476;2022-12-18T14:04:47;102328.78;;;-0.71;81.05
72921;BME280;61064;51.654;5.476;2022-12-18T14:07:24;102365.63;;;-0.57;81.04
72921;BME280;61064;51.654;5.476;2022-12-18T14:10:00;102396.66;;;-0.38;80.87
72921;BME280;61064;51.654;5.476;2022-12-18T14:12:36;102387.09;;;-0.37;80.83
72921;BME280;61064;51.654;5.476;2022-12-18T14:18:04;102270.47;;;-1.05;81.06
72921;BME280;61064;51.654;5.476;2022-12-18T14:20:59;102335.63;;;-0.62;80.92
72921;BME280;61064;51.654;5.476;2022-12-18T14:25:52;102252.41;;;-1.14;80.72
72921;BME280;61064;51.654;5.476;2022-12-18T14:28:17;102350.59;;;-0.59;80.67
72921;BME280;61064;51.654;5.476;2022-12-18T14:30:45;102337.41;;;-0.61;80.80
72921;BME280;61064;51.654;5.476;2022-12-18T14:33:14;102254.78;;;-1.05;80.52
72921;BME280;61064;51.654;5.476;2022-12-18T14:35:53;102264.34;;;-1.06;80.26
72921;BME280;61064;51.654;5.476;2022-12-18T14:38:28;102383.25;;;-0.31;80.51
72921;BME280;61064;51.654;5.476;2022-12-18T14:41:09;102369.03;;;-0.34;80.33